Time;durP1;ratioP1;P1;durP2;ratioP2;P2;SDS_P1;SDS_P2;PMS_P1;PMS_P2;Temp;Humidity;BMP_temperature;BMP_pressure;BME280_temperature;BME280_humidity;BME280_pressure;Samples;Min_cycle;Max_cycle;Signal;HPM_P1;HPM_P2
2022/09/19 00:01:07;;;;;;;58.07;2.80;;;;;;;;;;5069217;28;20474;-65
2022/09/19 00:03:35;;;;;;;58.27;2.60;;;;;;;;;;5071518;28;20477;-66
2022/09/19 00:06:02;;;;;;;58.37;2.90;;;;;;;;;;5071615;28;20496;-66
2022/09/19 00:08:29;;;;;;;58.17;2.70;;;;;;;;;;5071296;28;20447;-68
2022/09/19 00:10:56;;;;;;;58.07;2.77;;;;;;;;;;5070873;28;20447;-66
2022/09/19 00:13:25;;;;;;;58.13;2.80;;;;;;;;;;5075386;28;20465;-66
2022/09/19 00:15:52;;;;;;;58.03;2.50;;;;;;;;;;5075526;28;20447;-65
2022/09/19 00:18:19;;;;;;;58.17;2.30;;;;;;;;;;5075324;28;20490;-66
2022/09/19 00:20:47;;;;;;;58.07;2.60;;;;;;;;;;5075293;28;20466;-66
2022/09/19 00:26:01;;;;;;;58.33;2.63;;;;;;;;;;5075350;28;20430;-66
2022/09/19 00:28:30;;;;;;;58.47;2.80;;;;;;;;;;5075346;28;20447;-68
2022/09/19 00:30:57;;;;;;;58.50;2.70;;;;;;;;;;5074752;28;20459;-66
2022/09/19 00:33:27;;;;;;;58.47;2.70;;;;;;;;;;5072996;28;20457;-67
2022/09/19 00:35:55;;;;;;;58.33;2.70;;;;;;;;;;5075252;28;20504;-66
2022/09/19 00:38:22;;;;;;;58.13;2.50;;;;;;;;;;5074979;28;20486;-67
2022/09/19 00:40:49;;;;;;;58.37;2.63;;;;;;;;;;5074727;28;20832;-66
2022/09/19 00:43:18;;;;;;;58.50;2.90;;;;;;;;;;5074967;28;20450;-66
2022/09/19 00:45:47;;;;;;;58.47;2.73;;;;;;;;;;5074877;28;20447;-66
2022/09/19 00:48:15;;;;;;;58.43;2.77;;;;;;;;;;5074950;28;20747;-66
2022/09/19 00:50:44;;;;;;;58.37;2.83;;;;;;;;;;5074156;28;20959;-67
2022/09/19 00:53:12;;;;;;;58.17;2.50;;;;;;;;;;5075014;28;20451;-65
2022/09/19 00:55:40;;;;;;;58.60;2.67;;;;;;;;;;5074795;28;20529;-66
2022/09/19 00:58:11;;;;;;;58.27;2.63;;;;;;;;;;5074569;28;20483;-66
2022/09/19 01:00:39;;;;;;;58.20;2.70;;;;;;;;;;5074502;28;20447;-67
2022/09/19 01:03:09;;;;;;;58.37;2.93;;;;;;;;;;5074660;28;20479;-66
2022/09/19 01:05:42;;;;;;;58.27;2.73;;;;;;;;;;5071664;28;20534;-66
2022/09/19 01:08:18;;;;;;;58.37;3.00;;;;;;;;;;5074794;28;20890;-67
2022/09/19 01:10:53;;;;;;;58.60;2.73;;;;;;;;;;5074086;28;20789;-66
2022/09/19 01:13:24;;;;;;;58.70;2.90;;;;;;;;;;5074540;28;20454;-66
2022/09/19 01:15:54;;;;;;;58.37;2.70;;;;;;;;;;5074508;28;20479;-65
2022/09/19 01:18:24;;;;;;;58.53;2.63;;;;;;;;;;5074091;28;20485;-66
2022/09/19 01:23:57;;;;;;;58.40;2.70;;;;;;;;;;5072367;28;20977;-67
2022/09/19 01:26:37;;;;;;;58.43;2.80;;;;;;;;;;5074118;28;20814;-66
2022/09/19 01:29:09;;;;;;;58.10;2.80;;;;;;;;;;5074061;28;20439;-65
2022/09/19 01:31:38;;;;;;;58.37;2.70;;;;;;;;;;5073873;28;20454;-66
2022/09/19 01:34:07;;;;;;;58.47;2.63;;;;;;;;;;5073970;28;20490;-66
2022/09/19 01:36:36;;;;;;;58.37;2.60;;;;;;;;;;5073966;28;20497;-66
2022/09/19 01:39:04;;;;;;;58.67;2.73;;;;;;;;;;5071362;28;20482;-65
2022/09/19 01:41:32;;;;;;;58.43;2.70;;;;;;;;;;5074353;28;20443;-66
2022/09/19 01:44:04;;;;;;;58.50;2.60;;;;;;;;;;5073625;28;20478;-65
2022/09/19 01:46:38;;;;;;;58.57;2.67;;;;;;;;;;5053349;28;20460;-66
2022/09/19 01:49:10;;;;;;;58.67;2.70;;;;;;;;;;5053491;28;20937;-66
2022/09/19 01:51:40;;;;;;;58.57;2.60;;;;;;;;;;5053325;28;20476;-66
2022/09/19 01:54:11;;;;;;;58.53;2.53;;;;;;;;;;5053778;28;20476;-66
2022/09/19 01:56:42;;;;;;;58.47;2.77;;;;;;;;;;5053766;28;20452;-66
2022/09/19 01:59:16;;;;;;;58.27;2.63;;;;;;;;;;5053110;28;20848;-65
2022/09/19 02:01:48;;;;;;;58.53;2.70;;;;;;;;;;5053520;28;20451;-66
2022/09/19 02:04:18;;;;;;;58.37;2.83;;;;;;;;;;5053185;28;20511;-67
2022/09/19 02:06:48;;;;;;;58.57;2.77;;;;;;;;;;5053597;28;20808;-66
2022/09/19 02:09:20;;;;;;;58.27;2.67;;;;;;;;;;5053137;28;20850;-67
2022/09/19 02:11:47;;;;;;;58.53;2.77;;;;;;;;;;5062061;28;20458;-66
2022/09/19 02:14:17;;;;;;;58.30;2.70;;;;;;;;;;5073490;28;20464;-66
2022/09/19 02:16:51;;;;;;;58.17;2.80;;;;;;;;;;5073254;28;20584;-66
2022/09/19 02:19:19;;;;;;;58.27;2.90;;;;;;;;;;5072871;28;20900;-66
2022/09/19 02:21:48;;;;;;;58.33;2.67;;;;;;;;;;5073135;28;20576;-65
2022/09/19 02:24:17;;;;;;;58.50;2.63;;;;;;;;;;5072808;28;20521;-66
2022/09/19 02:26:51;;;;;;;58.37;2.60;;;;;;;;;;5073274;28;20447;-66
2022/09/19 02:29:20;;;;;;;58.70;2.80;;;;;;;;;;5072932;28;20449;-66
2022/09/19 02:31:49;;;;;;;58.37;2.77;;;;;;;;;;5072634;28;20448;-67
2022/09/19 02:34:16;;;;;;;58.33;2.77;;;;;;;;;;5072174;28;20493;-67
2022/09/19 02:36:46;;;;;;;58.53;2.60;;;;;;;;;;5072716;28;20455;-67
2022/09/19 02:39:15;;;;;;;57.90;2.90;;;;;;;;;;5072591;28;20486;-66
2022/09/19 02:41:49;;;;;;;58.37;2.57;;;;;;;;;;5072703;28;20450;-66
2022/09/19 02:44:21;;;;;;;57.97;2.60;;;;;;;;;;5070712;28;20514;-66
2022/09/19 02:46:54;;;;;;;58.27;2.60;;;;;;;;;;5072717;28;20489;-66
2022/09/19 02:49:28;;;;;;;58.17;2.60;;;;;;;;;;5072264;28;20436;-67
2022/09/19 02:51:56;;;;;;;58.57;2.60;;;;;;;;;;5072521;28;20455;-67
2022/09/19 02:54:26;;;;;;;58.60;2.70;;;;;;;;;;5072477;28;20478;-66
2022/09/19 02:56:55;;;;;;;58.27;2.73;;;;;;;;;;5072689;28;20814;-66
2022/09/19 02:59:25;;;;;;;58.53;2.60;;;;;;;;;;5071940;28;20475;-67
2022/09/19 03:01:56;;;;;;;58.43;2.43;;;;;;;;;;5072402;28;20451;-66
2022/09/19 03:04:25;;;;;;;58.37;2.70;;;;;;;;;;5072393;28;20486;-65
2022/09/19 03:06:55;;;;;;;57.83;2.57;;;;;;;;;;5072270;28;20454;-66
2022/09/19 03:09:24;;;;;;;58.20;2.70;;;;;;;;;;5072051;28;20455;-65
2022/09/19 03:11:54;;;;;;;58.13;2.50;;;;;;;;;;5072071;28;20846;-66
2022/09/19 03:14:22;;;;;;;58.37;2.57;;;;;;;;;;5072031;28;20467;-66
2022/09/19 03:16:51;;;;;;;57.93;2.43;;;;;;;;;;5070271;28;20463;-66
2022/09/19 03:19:20;;;;;;;57.90;2.80;;;;;;;;;;5071827;28;20483;-66
2022/09/19 03:21:47;;;;;;;58.17;2.73;;;;;;;;;;5071938;28;20458;-66
2022/09/19 03:24:15;;;;;;;57.93;2.70;;;;;;;;;;5071825;28;20497;-65
2022/09/19 03:26:42;;;;;;;58.47;3.00;;;;;;;;;;5071825;28;20462;-66
2022/09/19 03:29:11;;;;;;;58.50;3.07;;;;;;;;;;5071917;28;20443;-66
2022/09/19 03:31:38;;;;;;;58.23;2.87;;;;;;;;;;5071832;28;20956;-66
2022/09/19 03:34:06;;;;;;;57.90;2.80;;;;;;;;;;5071432;28;20489;-67
2022/09/19 03:36:34;;;;;;;58.10;2.60;;;;;;;;;;5072020;28;20501;-65
2022/09/19 03:39:02;;;;;;;58.17;2.60;;;;;;;;;;5071233;28;21031;-66
2022/09/19 03:41:31;;;;;;;58.03;2.80;;;;;;;;;;5071936;28;20726;-67
2022/09/19 03:44:01;;;;;;;57.87;2.73;;;;;;;;;;5071801;28;20479;-66
2022/09/19 03:46:30;;;;;;;58.20;2.73;;;;;;;;;;5070912;28;20444;-66
2022/09/19 03:49:00;;;;;;;58.50;2.87;;;;;;;;;;5068698;28;20513;-66
2022/09/19 03:51:27;;;;;;;58.30;2.90;;;;;;;;;;5071586;28;20833;-66
2022/09/19 03:53:56;;;;;;;58.17;2.70;;;;;;;;;;5071022;28;20557;-66
2022/09/19 03:56:23;;;;;;;58.17;2.50;;;;;;;;;;5071824;28;20448;-66
2022/09/19 03:58:50;;;;;;;58.20;2.70;;;;;;;;;;5071168;28;20479;-66
2022/09/19 04:01:17;;;;;;;57.77;2.70;;;;;;;;;;5071637;28;20491;-66
2022/09/19 04:03:46;;;;;;;57.97;2.70;;;;;;;;;;5072045;28;20470;-66
2022/09/19 04:06:13;;;;;;;58.40;2.90;;;;;;;;;;5071323;28;20513;-66
2022/09/19 04:08:40;;;;;;;58.03;2.57;;;;;;;;;;5071374;28;20443;-66
2022/09/19 04:11:09;;;;;;;58.17;2.60;;;;;;;;;;5071660;28;20451;-65
2022/09/19 04:13:37;;;;;;;57.97;2.60;;;;;;;;;;5070966;28;20503;-66
2022/09/19 04:16:05;;;;;;;57.93;2.40;;;;;;;;;;5071331;28;20495;-65
2022/09/19 04:18:34;;;;;;;57.87;2.40;;;;;;;;;;5068224;28;20483;-66
2022/09/19 04:21:01;;;;;;;58.07;2.57;;;;;;;;;;5071336;28;20455;-66
2022/09/19 04:23:28;;;;;;;58.20;2.40;;;;;;;;;;5071313;28;20466;-66
2022/09/19 04:25:55;;;;;;;57.87;2.40;;;;;;;;;;5071353;28;20443;-66
2022/09/19 04:28:24;;;;;;;57.97;2.50;;;;;;;;;;5071304;28;20532;-66
2022/09/19 04:30:51;;;;;;;58.00;2.47;;;;;;;;;;5070957;28;20534;-66
2022/09/19 04:33:23;;;;;;;58.17;2.43;;;;;;;;;;5070750;28;20469;-66
2022/09/19 04:35:50;;;;;;;57.83;2.40;;;;;;;;;;5070993;28;20975;-66
2022/09/19 04:38:18;;;;;;;58.70;2.60;;;;;;;;;;5071202;28;20449;-65
2022/09/19 04:40:47;;;;;;;58.27;2.60;;;;;;;;;;5070997;28;20483;-66
2022/09/19 04:43:15;;;;;;;57.97;2.40;;;;;;;;;;5071171;28;20458;-66
2022/09/19 04:45:47;;;;;;;58.10;2.63;;;;;;;;;;5070804;28;20448;-66
2022/09/19 04:48:14;;;;;;;58.17;2.60;;;;;;;;;;5071274;28;20443;-67
2022/09/19 04:50:41;;;;;;;58.23;2.70;;;;;;;;;;5069438;28;20447;-67
2022/09/19 04:53:13;;;;;;;57.97;2.43;;;;;;;;;;5070877;28;20452;-66
2022/09/19 04:55:41;;;;;;;58.07;2.40;;;;;;;;;;5070705;28;20443;-66
2022/09/19 04:58:08;;;;;;;58.20;2.80;;;;;;;;;;5072627;28;20517;-66
2022/09/19 05:00:39;;;;;;;58.23;2.67;;;;;;;;;;5074062;28;20501;-66
2022/09/19 05:03:08;;;;;;;58.07;2.40;;;;;;;;;;5074852;28;20443;-66
2022/09/19 05:05:36;;;;;;;58.07;2.40;;;;;;;;;;5074560;28;20470;-66
2022/09/19 05:08:04;;;;;;;57.97;2.63;;;;;;;;;;5074545;28;20439;-66
2022/09/19 05:10:32;;;;;;;57.93;2.37;;;;;;;;;;5074267;28;20443;-66
2022/09/19 05:12:59;;;;;;;58.60;2.70;;;;;;;;;;5074216;28;20451;-67
2022/09/19 05:15:26;;;;;;;57.77;2.10;;;;;;;;;;5074339;28;20473;-66
2022/09/19 05:17:53;;;;;;;58.00;2.47;;;;;;;;;;5074342;28;20454;-66
2022/09/19 05:20:22;;;;;;;57.73;2.43;;;;;;;;;;5074231;28;20860;-66
2022/09/19 05:22:49;;;;;;;58.13;2.57;;;;;;;;;;5071685;28;20823;-65
2022/09/19 05:25:17;;;;;;;58.03;2.67;;;;;;;;;;5073993;28;20471;-66
2022/09/19 05:27:45;;;;;;;58.10;2.70;;;;;;;;;;5074059;28;20976;-66
2022/09/19 05:30:13;;;;;;;58.27;3.10;;;;;;;;;;5074005;28;20466;-66
2022/09/19 05:32:44;;;;;;;58.13;2.77;;;;;;;;;;5074189;28;20455;-66
2022/09/19 05:35:12;;;;;;;57.97;2.67;;;;;;;;;;5073524;28;20586;-66
2022/09/19 05:37:42;;;;;;;58.13;2.57;;;;;;;;;;5074090;28;20470;-66
2022/09/19 05:40:11;;;;;;;58.07;2.70;;;;;;;;;;5073450;28;20486;-66
2022/09/19 05:42:40;;;;;;;59.33;2.60;;;;;;;;;;5074107;28;20839;-66
2022/09/19 05:45:08;;;;;;;58.10;2.60;;;;;;;;;;5073847;28;20525;-66
2022/09/19 05:47:35;;;;;;;58.07;2.60;;;;;;;;;;5073832;28;20443;-66
2022/09/19 05:50:02;;;;;;;58.13;2.50;;;;;;;;;;5073489;28;20455;-66
2022/09/19 05:55:16;;;;;;;58.50;2.77;;;;;;;;;;5071573;28;20462;-66
2022/09/19 05:57:44;;;;;;;58.27;2.73;;;;;;;;;;5073672;28;20473;-64
2022/09/19 06:00:12;;;;;;;58.47;2.70;;;;;;;;;;5073261;28;20518;-65
2022/09/19 06:02:39;;;;;;;58.27;2.43;;;;;;;;;;5073543;28;20479;-65
2022/09/19 06:05:06;;;;;;;58.07;2.47;;;;;;;;;;5073446;28;20475;-65
2022/09/19 06:07:33;;;;;;;58.03;2.43;;;;;;;;;;5073564;28;20825;-65
2022/09/19 06:10:01;;;;;;;58.17;2.70;;;;;;;;;;5072442;28;20454;-65
2022/09/19 06:12:29;;;;;;;57.87;2.30;;;;;;;;;;5073645;28;20444;-65
2022/09/19 06:14:57;;;;;;;58.07;2.70;;;;;;;;;;5073052;28;20471;-66
2022/09/19 06:17:24;;;;;;;58.13;2.60;;;;;;;;;;5073088;28;20546;-65
2022/09/19 06:19:51;;;;;;;58.90;2.80;;;;;;;;;;5072816;28;20479;-65
2022/09/19 06:22:18;;;;;;;58.07;2.67;;;;;;;;;;5073383;28;20478;-65
2022/09/19 06:24:45;;;;;;;57.97;2.50;;;;;;;;;;5072970;28;20481;-64
2022/09/19 06:27:13;;;;;;;57.97;2.60;;;;;;;;;;5070537;28;20951;-65
2022/09/19 06:29:41;;;;;;;58.13;2.70;;;;;;;;;;5072744;28;20439;-64
2022/09/19 06:32:09;;;;;;;57.90;2.60;;;;;;;;;;5072815;28;20443;-65
2022/09/19 06:34:36;;;;;;;57.87;2.60;;;;;;;;;;5072527;28;20490;-64
2022/09/19 06:37:03;;;;;;;58.40;3.20;;;;;;;;;;5072710;28;20455;-64
2022/09/19 06:39:30;;;;;;;58.03;2.87;;;;;;;;;;5072571;28;20450;-65
2022/09/19 06:41:57;;;;;;;58.37;2.90;;;;;;;;;;5072789;28;20829;-65
2022/09/19 06:44:25;;;;;;;58.20;3.67;;;;;;;;;;5072675;28;20473;-65
2022/09/19 06:46:53;;;;;;;58.60;2.87;;;;;;;;;;5072514;28;20517;-64
2022/09/19 06:49:20;;;;;;;57.90;2.77;;;;;;;;;;5072466;28;20454;-66
2022/09/19 06:51:47;;;;;;;58.07;2.70;;;;;;;;;;5072702;28;20447;-65
2022/09/19 06:54:14;;;;;;;58.00;2.90;;;;;;;;;;5072507;28;20478;-65
2022/09/19 06:56:42;;;;;;;57.97;2.80;;;;;;;;;;5072295;28;20843;-65
2022/09/19 06:59:09;;;;;;;58.00;2.70;;;;;;;;;;5069118;28;20448;-65
2022/09/19 07:01:37;;;;;;;57.70;2.70;;;;;;;;;;5072486;28;20483;-64
2022/09/19 07:04:05;;;;;;;58.03;2.70;;;;;;;;;;5072499;28;20529;-64
2022/09/19 07:06:34;;;;;;;57.87;2.73;;;;;;;;;;5072165;28;20451;-65
2022/09/19 07:09:03;;;;;;;57.80;2.83;;;;;;;;;;5071977;28;20825;-66
2022/09/19 07:11:30;;;;;;;58.17;2.87;;;;;;;;;;5072174;28;20443;-65
2022/09/19 07:13:58;;;;;;;58.07;2.60;;;;;;;;;;5072308;28;20498;-65
2022/09/19 07:16:25;;;;;;;65.90;2.90;;;;;;;;;;5071862;28;20446;-65
2022/09/19 07:18:52;;;;;;;57.77;2.50;;;;;;;;;;5071741;28;20947;-65
2022/09/19 07:21:20;;;;;;;58.47;3.20;;;;;;;;;;5072052;28;20514;-65
2022/09/19 07:23:47;;;;;;;58.17;3.17;;;;;;;;;;5071897;28;20472;-66
2022/09/19 07:26:14;;;;;;;57.57;2.60;;;;;;;;;;5071816;28;20572;-65
2022/09/19 07:28:42;;;;;;;58.50;2.80;;;;;;;;;;5068842;28;20464;-65
2022/09/19 07:31:09;;;;;;;57.87;2.60;;;;;;;;;;5071973;28;20446;-65
2022/09/19 07:33:36;;;;;;;57.73;2.50;;;;;;;;;;5071949;28;20473;-66
2022/09/19 07:36:07;;;;;;;57.83;2.70;;;;;;;;;;5071408;28;20463;-64
2022/09/19 07:38:35;;;;;;;63.23;2.80;;;;;;;;;;5071276;28;20462;-66
2022/09/19 07:41:02;;;;;;;57.87;2.70;;;;;;;;;;5071838;28;20825;-65
2022/09/19 07:43:29;;;;;;;58.40;3.00;;;;;;;;;;5071874;28;20448;-64
2022/09/19 07:45:57;;;;;;;58.60;3.87;;;;;;;;;;5071828;28;20454;-65
2022/09/19 07:48:24;;;;;;;58.10;2.70;;;;;;;;;;5071611;28;20447;-64
2022/09/19 07:50:51;;;;;;;58.17;2.77;;;;;;;;;;5071448;28;20447;-65
2022/09/19 07:53:19;;;;;;;58.50;2.77;;;;;;;;;;5071335;28;20451;-64
2022/09/19 07:55:51;;;;;;;58.17;2.63;;;;;;;;;;5071373;28;20452;-66
2022/09/19 07:58:19;;;;;;;57.87;2.60;;;;;;;;;;5071764;28;20439;-65
2022/09/19 08:00:46;;;;;;;57.93;2.67;;;;;;;;;;5068862;28;20483;-65
2022/09/19 08:03:15;;;;;;;58.07;2.50;;;;;;;;;;5071453;28;20443;-65
2022/09/19 08:05:42;;;;;;;57.93;2.33;;;;;;;;;;5071473;28;20477;-65
2022/09/19 08:08:10;;;;;;;57.90;2.50;;;;;;;;;;5071521;28;20447;-65
2022/09/19 08:10:38;;;;;;;62.37;2.93;;;;;;;;;;5071380;28;20465;-65
2022/09/19 08:13:07;;;;;;;58.10;2.60;;;;;;;;;;5071557;28;20466;-66
2022/09/19 08:15:34;;;;;;;58.10;2.83;;;;;;;;;;5071191;28;20467;-65
2022/09/19 08:18:02;;;;;;;57.73;2.50;;;;;;;;;;5071123;28;20447;-65
2022/09/19 08:20:30;;;;;;;58.37;2.60;;;;;;;;;;5070860;28;20483;-65
2022/09/19 08:22:58;;;;;;;58.13;2.70;;;;;;;;;;5071322;28;20451;-65
2022/09/19 08:25:25;;;;;;;57.67;2.50;;;;;;;;;;5071112;28;20983;-65
2022/09/19 08:27:52;;;;;;;58.20;2.73;;;;;;;;;;5071133;28;20457;-64
2022/09/19 08:30:21;;;;;;;57.83;2.70;;;;;;;;;;5070753;28;20815;-64
2022/09/19 08:32:49;;;;;;;57.77;2.40;;;;;;;;;;5069726;28;20486;-65
2022/09/19 08:35:16;;;;;;;65.60;3.10;;;;;;;;;;5075066;28;20487;-65
2022/09/19 08:37:44;;;;;;;57.90;2.50;;;;;;;;;;5075086;28;20825;-65
2022/09/19 08:40:19;;;;;;;57.90;2.43;;;;;;;;;;5074873;28;20475;-65
2022/09/19 08:42:52;;;;;;;58.20;2.60;;;;;;;;;;5075071;28;20454;-65
2022/09/19 08:45:24;;;;;;;59.37;2.60;;;;;;;;;;5074778;28;20463;-64
2022/09/19 08:47:52;;;;;;;58.40;3.00;;;;;;;;;;5075231;28;20844;-65
2022/09/19 08:50:21;;;;;;;58.60;3.00;;;;;;;;;;5074377;28;20970;-64
2022/09/19 08:52:49;;;;;;;58.10;2.90;;;;;;;;;;5074774;28;20455;-66
2022/09/19 08:55:18;;;;;;;57.90;2.40;;;;;;;;;;5069546;28;20462;-65
2022/09/19 08:57:50;;;;;;;60.23;3.60;;;;;;;;;;5054306;28;20456;-65
2022/09/19 09:00:18;;;;;;;57.87;2.50;;;;;;;;;;5054676;28;20480;-65
2022/09/19 09:02:48;;;;;;;61.90;2.97;;;;;;;;;;5054694;28;20960;-66
2022/09/19 09:05:16;;;;;;;58.50;2.63;;;;;;;;;;5074755;28;20845;-65
2022/09/19 09:07:50;;;;;;;57.97;2.80;;;;;;;;;;5074599;28;20453;-65
2022/09/19 09:10:24;;;;;;;57.97;2.70;;;;;;;;;;5073995;28;20451;-64
2022/09/19 09:12:58;;;;;;;58.60;2.90;;;;;;;;;;5074740;28;20448;-65
2022/09/19 09:15:28;;;;;;;57.97;2.67;;;;;;;;;;5074527;28;20467;-65
2022/09/19 09:18:04;;;;;;;58.30;2.90;;;;;;;;;;5074233;28;20452;-65
2022/09/19 09:20:39;;;;;;;58.07;2.60;;;;;;;;;;5074011;28;20474;-65
2022/09/19 09:23:09;;;;;;;58.27;2.50;;;;;;;;;;5074290;28;20467;-65
2022/09/19 09:25:39;;;;;;;58.60;2.70;;;;;;;;;;5074438;28;20452;-64
2022/09/19 09:28:08;;;;;;;59.40;3.80;;;;;;;;;;5074544;28;20444;-65
2022/09/19 09:30:37;;;;;;;57.63;2.40;;;;;;;;;;5074057;28;21005;-65
2022/09/19 09:33:10;;;;;;;58.40;3.00;;;;;;;;;;5074124;28;20447;-65
2022/09/19 09:35:39;;;;;;;58.40;2.80;;;;;;;;;;5072214;28;20470;-67
2022/09/19 09:38:14;;;;;;;58.40;2.63;;;;;;;;;;5073885;28;20514;-67
2022/09/19 09:43:31;;;;;;;58.57;3.00;;;;;;;;;;5073488;28;20428;-67
2022/09/19 09:46:00;;;;;;;58.60;3.00;;;;;;;;;;5073481;28;20451;-66
2022/09/19 09:48:32;;;;;;;58.13;2.80;;;;;;;;;;5073972;28;20453;-66
2022/09/19 09:51:05;;;;;;;57.83;2.80;;;;;;;;;;5073832;28;20440;-66
2022/09/19 09:53:42;;;;;;;58.40;3.00;;;;;;;;;;5073785;28;20484;-66
2022/09/19 09:56:17;;;;;;;59.47;2.93;;;;;;;;;;5073681;28;20444;-66
2022/09/19 09:58:59;;;;;;;58.20;2.67;;;;;;;;;;5073139;28;20445;-67
2022/09/19 10:04:22;;;;;;;57.67;2.30;;;;;;;;;;5073575;28;20443;-67
2022/09/19 10:06:52;;;;;;;58.20;2.90;;;;;;;;;;5071673;28;20464;-66
2022/09/19 10:09:20;;;;;;;57.80;2.20;;;;;;;;;;5073088;28;20637;-67
2022/09/19 10:11:49;;;;;;;57.97;2.70;;;;;;;;;;5073652;28;20451;-67
2022/09/19 10:14:19;;;;;;;58.70;2.50;;;;;;;;;;5073362;28;20464;-67
2022/09/19 10:16:47;;;;;;;58.27;2.50;;;;;;;;;;5073381;28;20450;-67
2022/09/19 10:19:22;;;;;;;57.97;2.43;;;;;;;;;;5072370;28;20721;-67
2022/09/19 10:21:50;;;;;;;60.13;2.50;;;;;;;;;;5073343;28;20497;-67
2022/09/19 10:24:37;;;;;;;57.80;2.50;;;;;;;;;;5073026;28;21014;-66
2022/09/19 10:27:11;;;;;;;58.00;2.57;;;;;;;;;;5073166;28;20515;-67
2022/09/19 10:29:44;;;;;;;57.97;2.43;;;;;;;;;;5072704;28;20458;-67
2022/09/19 10:32:17;;;;;;;58.50;3.00;;;;;;;;;;5073425;28;20820;-66
2022/09/19 10:34:45;;;;;;;57.80;2.50;;;;;;;;;;5072784;28;20536;-67
2022/09/19 10:37:14;;;;;;;58.80;3.00;;;;;;;;;;5071601;28;20449;-67
2022/09/19 10:39:44;;;;;;;57.67;2.80;;;;;;;;;;5071692;28;20500;-67
2022/09/19 10:42:20;;;;;;;60.87;2.83;;;;;;;;;;5072839;28;20490;-66
2022/09/19 10:44:52;;;;;;;57.60;2.57;;;;;;;;;;5072713;28;21014;-67
2022/09/19 10:47:19;;;;;;;58.27;2.90;;;;;;;;;;5072851;28;20451;-67
2022/09/19 10:49:48;;;;;;;57.90;2.60;;;;;;;;;;5072282;28;20459;-66
2022/09/19 10:52:22;;;;;;;57.97;2.63;;;;;;;;;;5072425;28;20446;-66
2022/09/19 10:54:53;;;;;;;58.50;3.20;;;;;;;;;;5072392;28;20466;-67
2022/09/19 10:57:40;;;;;;;57.67;2.40;;;;;;;;;;5072543;28;20455;-67
2022/09/19 11:00:20;;;;;;;60.60;2.83;;;;;;;;;;5071796;28;20451;-67
2022/09/19 11:02:54;;;;;;;59.67;2.80;;;;;;;;;;5072216;28;20483;-65
2022/09/19 11:05:24;;;;;;;58.50;2.70;;;;;;;;;;5072411;28;20494;-66
2022/09/19 11:07:55;;;;;;;62.40;3.80;;;;;;;;;;5072266;28;20838;-67
2022/09/19 11:10:33;;;;;;;58.60;2.40;;;;;;;;;;5069616;28;20462;-67
2022/09/19 11:13:07;;;;;;;57.50;2.40;;;;;;;;;;5072275;28;20443;-65
2022/09/19 11:15:36;;;;;;;57.87;2.60;;;;;;;;;;5071985;28;20823;-65
2022/09/19 11:18:09;;;;;;;58.07;2.90;;;;;;;;;;5071729;28;20450;-65
2022/09/19 11:20:40;;;;;;;57.63;2.57;;;;;;;;;;5070629;28;20455;-64
2022/09/19 11:23:28;;;;;;;57.60;2.67;;;;;;;;;;5072154;28;20786;-65
2022/09/19 11:26:03;;;;;;;58.80;2.80;;;;;;;;;;5071866;28;20455;-65
2022/09/19 11:28:36;;;;;;;58.10;2.80;;;;;;;;;;5071804;28;20951;-65
2022/09/19 11:31:09;;;;;;;58.40;2.43;;;;;;;;;;5071769;28;20451;-65
2022/09/19 11:33:45;;;;;;;57.60;2.37;;;;;;;;;;5071903;28;20471;-65
2022/09/19 11:36:16;;;;;;;57.47;2.40;;;;;;;;;;5071516;28;20862;-65
2022/09/19 11:38:51;;;;;;;57.70;2.30;;;;;;;;;;5071823;28;20450;-65
2022/09/19 11:41:24;;;;;;;63.20;2.30;;;;;;;;;;5069119;28;20483;-65
2022/09/19 11:43:59;;;;;;;57.80;2.10;;;;;;;;;;5071788;28;20472;-65
2022/09/19 11:46:33;;;;;;;59.40;2.37;;;;;;;;;;5071765;28;20451;-65
2022/09/19 11:49:22;;;;;;;57.53;2.20;;;;;;;;;;5071510;28;20447;-65
2022/09/19 11:51:56;;;;;;;59.50;2.73;;;;;;;;;;5071673;28;20453;-65
2022/09/19 11:54:44;;;;;;;57.57;2.70;;;;;;;;;;5071633;28;20562;-67
2022/09/19 11:57:16;;;;;;;57.70;2.30;;;;;;;;;;5071396;28;20443;-65
2022/09/19 11:59:49;;;;;;;58.07;2.67;;;;;;;;;;5071343;28;20465;-65
2022/09/19 12:02:27;;;;;;;58.00;2.43;;;;;;;;;;5071340;28;20491;-65
2022/09/19 12:04:59;;;;;;;58.57;2.33;;;;;;;;;;5071483;28;20467;-66
2022/09/19 12:07:31;;;;;;;57.87;2.60;;;;;;;;;;5070692;28;20447;-64
2022/09/19 12:10:01;;;;;;;57.90;2.40;;;;;;;;;;5071124;28;21042;-65
2022/09/19 12:12:31;;;;;;;57.70;2.20;;;;;;;;;;5069220;28;20443;-64
2022/09/19 12:15:02;;;;;;;57.97;2.00;;;;;;;;;;5071475;28;20474;-64
2022/09/19 12:17:32;;;;;;;58.00;2.30;;;;;;;;;;5071519;28;20478;-65
2022/09/19 12:20:02;;;;;;;57.97;2.40;;;;;;;;;;5071045;28;20443;-65
2022/09/19 12:22:30;;;;;;;57.83;2.53;;;;;;;;;;5071347;28;20501;-67
2022/09/19 12:25:01;;;;;;;57.90;2.60;;;;;;;;;;5071447;28;20503;-67
2022/09/19 12:27:32;;;;;;;57.27;2.43;;;;;;;;;;5071312;28;21041;-66
2022/09/19 12:30:05;;;;;;;57.50;2.10;;;;;;;;;;5070978;28;20465;-66
2022/09/19 12:32:41;;;;;;;58.17;2.33;;;;;;;;;;5071016;28;20537;-67
2022/09/19 12:35:14;;;;;;;57.67;2.40;;;;;;;;;;5071245;28;20853;-67
2022/09/19 12:37:51;;;;;;;57.47;2.20;;;;;;;;;;5071340;28;20466;-67
2022/09/19 12:40:22;;;;;;;57.83;2.13;;;;;;;;;;5070789;28;20451;-66
2022/09/19 12:42:54;;;;;;;58.17;2.70;;;;;;;;;;5070812;28;20478;-65
2022/09/19 12:45:23;;;;;;;57.80;2.50;;;;;;;;;;5069566;28;20478;-65
2022/09/19 12:48:00;;;;;;;57.70;2.30;;;;;;;;;;5071110;28;20885;-66
2022/09/19 12:50:32;;;;;;;57.43;2.20;;;;;;;;;;5070978;28;20872;-65
2022/09/19 12:53:07;;;;;;;60.27;2.00;;;;;;;;;;5070925;28;20501;-65
2022/09/19 12:55:39;;;;;;;57.87;2.13;;;;;;;;;;5070829;28;20824;-65
2022/09/19 12:58:16;;;;;;;57.70;2.37;;;;;;;;;;5071278;28;20451;-65
2022/09/19 13:00:45;;;;;;;57.67;2.20;;;;;;;;;;5070667;28;20474;-66
2022/09/19 13:03:16;;;;;;;57.53;2.10;;;;;;;;;;5070380;28;20490;-64
2022/09/19 13:05:46;;;;;;;59.03;2.40;;;;;;;;;;5070806;28;20452;-65
2022/09/19 13:08:14;;;;;;;57.80;2.30;;;;;;;;;;5071123;28;20451;-65
2022/09/19 13:10:44;;;;;;;59.23;2.60;;;;;;;;;;5070531;28;20451;-65
2022/09/19 13:13:17;;;;;;;57.67;2.50;;;;;;;;;;5064106;28;20444;-65
2022/09/19 13:15:47;;;;;;;57.90;2.30;;;;;;;;;;5050917;28;20444;-65
2022/09/19 13:23:47;;;;;;;58.10;2.40;;;;;;;;;;5074047;28;20804;-65
2022/09/19 13:26:19;;;;;;;58.10;2.30;;;;;;;;;;5074288;28;20451;-65
2022/09/19 13:28:49;;;;;;;57.60;2.00;;;;;;;;;;5073819;28;20449;-65
2022/09/19 13:31:17;;;;;;;58.77;2.20;;;;;;;;;;5074161;28;20432;-65
2022/09/19 13:33:45;;;;;;;57.50;1.97;;;;;;;;;;5073414;28;20497;-65
2022/09/19 13:36:13;;;;;;;57.50;2.10;;;;;;;;;;5074024;28;20879;-66
2022/09/19 13:38:41;;;;;;;60.10;2.40;;;;;;;;;;5073596;28;20944;-66
2022/09/19 13:41:11;;;;;;;57.27;2.13;;;;;;;;;;5074111;28;20958;-66
2022/09/19 13:43:56;;;;;;;57.53;1.90;;;;;;;;;;5073762;28;20486;-66
2022/09/19 13:46:27;;;;;;;58.67;2.10;;;;;;;;;;5073867;28;20447;-66
2022/09/19 13:48:58;;;;;;;57.80;1.90;;;;;;;;;;5071168;28;20819;-67
2022/09/19 13:51:39;;;;;;;57.93;2.03;;;;;;;;;;5073911;28;20451;-66
2022/09/19 13:54:18;;;;;;;57.43;2.00;;;;;;;;;;5073564;28;20467;-66
2022/09/19 13:56:49;;;;;;;57.57;1.90;;;;;;;;;;5073883;28;20447;-66
2022/09/19 13:59:23;;;;;;;58.00;1.97;;;;;;;;;;5073509;28;20446;-66
2022/09/19 14:01:58;;;;;;;57.97;2.40;;;;;;;;;;5073454;28;20479;-66
2022/09/19 14:07:18;;;;;;;58.00;2.60;;;;;;;;;;5073618;28;20423;-65
2022/09/19 14:09:46;;;;;;;58.10;2.90;;;;;;;;;;5073188;28;20954;-66
2022/09/19 14:12:46;;;;;;;57.60;2.33;;;;;;;;;;5073405;28;20458;-66
2022/09/19 14:15:44;;;;;;;58.10;2.60;;;;;;;;;;5011214;28;20476;-66
2022/09/19 14:18:30;;;;;;;57.90;2.47;;;;;;;;;;5011248;28;20454;-66
2022/09/19 14:21:00;;;;;;;58.10;2.63;;;;;;;;;;5010904;28;20469;-66
2022/09/19 14:23:29;;;;;;;58.17;2.80;;;;;;;;;;5010661;28;20568;-66
2022/09/19 14:25:59;;;;;;;57.97;2.53;;;;;;;;;;5011153;28;20454;-66
2022/09/19 14:28:42;;;;;;;57.87;2.70;;;;;;;;;;5011059;28;20457;-65
2022/09/19 14:31:31;;;;;;;58.10;2.60;;;;;;;;;;5010293;28;20464;-67
2022/09/19 14:34:16;;;;;;;58.13;2.70;;;;;;;;;;5010763;28;20469;-65
2022/09/19 14:36:59;;;;;;;58.07;2.70;;;;;;;;;;5011018;28;20798;-66
2022/09/19 14:39:38;;;;;;;57.97;2.50;;;;;;;;;;4989683;28;20456;-66
2022/09/19 14:42:10;;;;;;;58.27;2.60;;;;;;;;;;5010715;28;20480;-65
2022/09/19 14:44:52;;;;;;;58.40;2.50;;;;;;;;;;5010483;28;20474;-66
2022/09/19 14:47:28;;;;;;;58.10;2.50;;;;;;;;;;5052149;28;20529;-65
2022/09/19 14:49:58;;;;;;;58.07;2.60;;;;;;;;;;5053203;28;20468;-66
2022/09/19 14:52:27;;;;;;;58.03;2.57;;;;;;;;;;5073122;28;20446;-66
2022/09/19 14:54:56;;;;;;;58.27;2.80;;;;;;;;;;5072480;28;20524;-66
2022/09/19 14:57:24;;;;;;;58.13;2.43;;;;;;;;;;5072589;28;20447;-65
2022/09/19 14:59:52;;;;;;;57.90;2.43;;;;;;;;;;5072120;28;20459;-66
2022/09/19 15:02:23;;;;;;;58.23;2.40;;;;;;;;;;5072142;28;20496;-65
2022/09/19 15:04:51;;;;;;;57.93;2.63;;;;;;;;;;5072375;28;20787;-66
2022/09/19 15:07:19;;;;;;;58.07;2.80;;;;;;;;;;5072506;28;20459;-67
2022/09/19 15:09:46;;;;;;;57.97;2.70;;;;;;;;;;5072154;28;20447;-66
2022/09/19 15:12:15;;;;;;;58.27;2.70;;;;;;;;;;5072560;28;20450;-66